Time;durP1;ratioP1;P1;durP2;ratioP2;P2;SDS_P1;SDS_P2;PMS_P1;PMS_P2;Temp;Humidity;BMP_temperature;BMP_pressure;BME280_temperature;BME280_humidity;BME280_pressure;Samples;Min_cycle;Max_cycle;Signal;HPM_P1;HPM_P2
2022/01/07 00:00:33;;;;;;;42.30;14.77;;;-1.00;99.90;;;0.08;100.00;98298.88;5202446;28;20569;-65
2022/01/07 00:03:07;;;;;;;35.80;13.47;;;-0.90;99.90;;;-0.04;100.00;98294.34;5198874;28;20225;-65
2022/01/07 00:05:40;;;;;;;14.30;12.63;;;-1.00;99.90;;;0.01;100.00;98297.34;5196665;28;20210;-65
2022/01/07 00:08:13;;;;;;;14.07;12.57;;;-0.90;99.90;;;0.05;100.00;98294.41;5201996;28;20687;-65
2022/01/07 00:10:46;;;;;;;104.93;18.07;;;-0.80;99.90;;;0.01;100.00;98286.41;5199942;28;20221;-65
2022/01/07 00:13:19;;;;;;;25.07;12.57;;;-0.80;99.90;;;-0.05;100.00;98289.19;5204923;28;20884;-64
2022/01/07 00:15:54;;;;;;;71.13;15.17;;;-0.90;99.90;;;-0.11;100.00;98286.91;5200053;28;20591;-65
2022/01/07 00:18:27;;;;;;;14.17;12.30;;;-1.00;99.90;;;-0.14;100.00;98285.69;5203535;28;20215;-65
2022/01/07 00:21:01;;;;;;;14.90;13.33;;;-1.00;99.90;;;-0.21;100.00;98288.28;5199141;28;20210;-65
2022/01/07 00:23:34;;;;;;;15.83;13.77;;;-1.00;99.90;;;-0.15;100.00;98282.28;5197590;28;20199;-65
2022/01/07 00:26:07;;;;;;;14.73;13.20;;;-0.90;99.90;;;-0.11;100.00;98281.88;5199803;28;20297;-65
2022/01/07 00:28:40;;;;;;;16.27;14.03;;;-0.90;99.90;;;-0.20;100.00;98273.41;5199303;28;20204;-64
2022/01/07 00:31:15;;;;;;;14.40;13.00;;;-0.90;99.90;;;-0.18;100.00;98273.53;5202570;28;20214;-65
2022/01/07 00:33:48;;;;;;;14.23;12.73;;;-0.90;99.90;;;-0.20;100.00;98260.84;5198975;28;20233;-65
2022/01/07 00:36:21;;;;;;;14.63;13.03;;;-0.90;99.90;;;-0.18;100.00;98263.50;5202189;28;20712;-64
2022/01/07 00:38:54;;;;;;;13.40;12.10;;;-0.90;99.90;;;-0.11;100.00;98266.81;5199108;28;20205;-65
2022/01/07 00:41:27;;;;;;;13.33;11.93;;;-0.90;99.90;;;-0.13;100.00;98260.72;5196702;28;20248;-64
2022/01/07 00:44:00;;;;;;;13.20;11.83;;;-0.90;99.90;;;-0.18;100.00;98254.34;5198534;28;20691;-65
2022/01/07 00:46:35;;;;;;;13.87;12.33;;;-0.90;99.90;;;-0.13;100.00;98258.22;5202415;28;20205;-65
2022/01/07 00:49:08;;;;;;;12.90;11.47;;;-1.00;99.90;;;-0.28;100.00;98257.53;5200467;28;20647;-65
2022/01/07 00:51:41;;;;;;;19.47;13.53;;;-1.10;99.90;;;-0.23;100.00;98263.00;5198587;28;20227;-65
2022/01/07 00:54:14;;;;;;;16.00;12.93;;;-1.00;99.90;;;-0.27;100.00;98248.34;5199792;28;20618;-65
2022/01/07 00:56:47;;;;;;;15.53;12.17;;;-1.10;99.90;;;-0.32;100.00;98236.94;5198704;28;20204;-65
2022/01/07 00:59:20;;;;;;;13.67;12.27;;;-1.10;99.90;;;-0.42;100.00;98237.59;5201201;28;20585;-64
2022/01/07 01:01:55;;;;;;;14.63;12.10;;;-1.20;99.90;;;-0.53;100.00;98241.50;5204220;28;20231;-64
2022/01/07 01:04:48;;;;;;;12.83;10.90;;;-1.30;99.90;;;-0.54;100.00;98249.75;5201152;28;20202;-65
2022/01/07 01:07:21;;;;;;;13.73;12.23;;;-1.30;99.90;;;-0.57;100.00;98243.50;5203800;28;20199;-64
2022/01/07 01:09:54;;;;;;;14.63;12.63;;;-1.40;99.90;;;-0.50;100.00;98246.84;5203562;28;20740;-64
2022/01/07 01:12:27;;;;;;;13.00;11.67;;;-1.30;99.90;;;-0.50;100.00;98246.84;5202466;28;20251;-65
2022/01/07 01:15:00;;;;;;;14.37;11.97;;;-1.30;99.90;;;-0.50;100.00;98243.44;5205262;28;20228;-65
2022/01/07 01:17:35;;;;;;;14.97;12.13;;;-1.30;99.90;;;-0.47;100.00;98238.72;5204701;28;20686;-65
2022/01/07 01:20:11;;;;;;;15.47;12.70;;;-1.30;99.90;;;-0.42;100.00;98232.59;5204467;28;20196;-65
2022/01/07 01:22:44;;;;;;;13.40;12.00;;;-1.30;99.90;;;-0.43;100.00;98244.97;5205288;28;20237;-65
2022/01/07 01:25:18;;;;;;;13.70;12.20;;;-1.20;99.90;;;-0.41;100.00;98246.03;5204231;28;20564;-64
2022/01/07 01:27:51;;;;;;;13.23;11.90;;;-1.20;99.90;;;-0.47;100.00;98242.13;5205031;28;20203;-65
2022/01/07 01:30:27;;;;;;;13.73;12.03;;;-1.20;99.90;;;-0.58;100.00;98245.13;5203111;28;20210;-65
2022/01/07 01:33:02;;;;;;;12.83;11.13;;;-1.30;99.90;;;-0.67;100.00;98244.16;5203095;28;20226;-65
2022/01/07 01:35:37;;;;;;;12.77;11.33;;;-1.40;99.90;;;-0.57;100.00;98246.94;5200286;28;20243;-65
2022/01/07 01:38:10;;;;;;;13.30;11.90;;;-1.30;99.90;;;-0.54;100.00;98241.34;5204164;28;20202;-65
2022/01/07 01:40:43;;;;;;;14.30;11.50;;;-1.30;99.90;;;-0.66;100.00;98240.91;5202396;28;20230;-65
2022/01/07 01:43:16;;;;;;;13.37;12.00;;;-1.40;99.90;;;-0.72;100.00;98236.13;5202142;28;20222;-64
2022/01/07 01:45:50;;;;;;;13.17;11.77;;;-1.50;99.90;;;-0.65;100.00;98237.69;5201319;28;20200;-65
2022/01/07 01:48:24;;;;;;;13.30;11.90;;;-1.40;99.90;;;-0.62;100.00;98245.53;5199992;28;20203;-64
2022/01/07 01:50:57;;;;;;;12.43;11.23;;;-1.40;99.90;;;-0.61;100.00;98237.28;5203648;28;20203;-65
2022/01/07 01:53:31;;;;;;;15.50;11.53;;;-1.40;99.90;;;-0.60;100.00;98240.66;5200119;28;20269;-64
2022/01/07 01:56:04;;;;;;;12.70;11.50;;;-1.40;99.90;;;-0.65;100.00;98227.66;5202948;28;20225;-65
2022/01/07 01:58:38;;;;;;;12.63;11.33;;;-1.50;99.90;;;-0.73;100.00;98228.47;5201340;28;20218;-65
2022/01/07 02:01:11;;;;;;;13.97;12.27;;;-1.50;99.90;;;-0.76;100.00;98218.09;5202406;28;20198;-64
2022/01/07 02:03:46;;;;;;;14.20;12.67;;;-1.50;99.90;;;-0.84;100.00;98219.78;5201581;28;20300;-65
2022/01/07 02:06:19;;;;;;;15.37;12.17;;;-1.60;99.90;;;-0.86;100.00;98210.31;5201603;28;20193;-64
2022/01/07 02:08:53;;;;;;;15.07;12.03;;;-1.60;99.90;;;-0.80;100.00;98221.00;5201739;28;20213;-65
2022/01/07 02:11:26;;;;;;;13.90;12.43;;;-1.60;99.90;;;-0.87;100.00;98211.06;5201913;28;20603;-65
2022/01/07 02:13:59;;;;;;;14.43;12.00;;;-1.60;99.90;;;-0.86;100.00;98202.78;5202779;28;20571;-65
2022/01/07 02:16:32;;;;;;;13.83;12.27;;;-1.60;99.90;;;-0.93;100.00;98209.66;5200204;28;20695;-65
2022/01/07 02:19:06;;;;;;;13.90;12.10;;;-1.60;99.90;;;-0.89;100.00;98210.88;5201579;28;20286;-65
2022/01/07 02:21:41;;;;;;;14.03;12.23;;;-1.60;99.90;;;-0.94;100.00;98209.53;5201178;28;20221;-65
2022/01/07 02:24:14;;;;;;;13.40;11.33;;;-1.60;99.90;;;-0.99;100.00;98209.03;5201544;28;20198;-65
2022/01/07 02:26:47;;;;;;;12.90;11.60;;;-1.70;99.90;;;-1.04;100.00;98210.13;5201447;28;20203;-65
2022/01/07 02:29:21;;;;;;;15.50;11.53;;;-1.80;99.90;;;-1.10;100.00;98204.47;5200868;28;20662;-64
2022/01/07 02:31:54;;;;;;;14.47;11.97;;;-1.80;99.90;;;-1.06;100.00;98195.66;5201483;28;20228;-65
2022/01/07 02:34:27;;;;;;;16.33;12.90;;;-1.80;99.90;;;-1.11;100.00;98192.69;5200435;28;20198;-65
2022/01/07 02:37:02;;;;;;;16.30;13.30;;;-1.70;99.90;;;-1.03;100.00;98181.84;5202172;28;20202;-65
2022/01/07 02:39:36;;;;;;;15.23;13.43;;;-1.70;99.90;;;-0.98;100.00;98179.81;5202570;28;20194;-65
2022/01/07 02:42:10;;;;;;;18.10;13.57;;;-1.70;99.90;;;-1.01;100.00;98167.81;5196733;28;20288;-65
2022/01/07 02:44:43;;;;;;;14.77;13.00;;;-1.60;99.90;;;-0.97;100.00;98171.56;5203462;28;20207;-65
2022/01/07 02:47:16;;;;;;;24.43;12.83;;;-1.60;99.90;;;-1.04;100.00;98167.50;5205237;28;20207;-64
2022/01/07 02:49:50;;;;;;;14.50;12.00;;;-1.70;99.90;;;-1.02;100.00;98161.03;5208140;28;20200;-65
2022/01/07 02:52:24;;;;;;;14.40;12.90;;;-1.70;99.90;;;-1.01;100.00;98167.81;5205116;28;20228;-65
2022/01/07 02:54:57;;;;;;;14.40;12.83;;;-1.80;99.90;;;-1.12;100.00;98165.78;5206164;28;20228;-65
2022/01/07 02:57:30;;;;;;;15.27;13.33;;;-1.80;99.90;;;-1.13;100.00;98169.03;5203081;28;20593;-65
2022/01/07 03:00:05;;;;;;;16.27;13.47;;;-1.90;99.90;;;-1.08;100.00;98172.06;5199462;28;20209;-64
2022/01/07 03:02:38;;;;;;;15.17;13.67;;;-1.70;99.90;;;-1.04;100.00;98165.00;5203004;28;20743;-65
2022/01/07 03:05:12;;;;;;;15.43;13.77;;;-1.70;99.90;;;-1.12;100.00;98165.78;5202522;28;20195;-65
2022/01/07 03:07:48;;;;;;;16.03;13.83;;;-1.80;99.90;;;-1.09;100.00;98163.63;5206587;28;20684;-65
2022/01/07 03:10:25;;;;;;;14.40;12.67;;;-1.80;99.90;;;-1.15;100.00;98155.44;5205695;28;20199;-64
2022/01/07 03:13:01;;;;;;;18.33;14.67;;;-1.80;99.90;;;-1.16;100.00;98157.06;5205826;28;20686;-65
2022/01/07 03:15:37;;;;;;;15.43;13.13;;;-1.80;99.90;;;-1.19;100.00;98164.25;5207060;28;20224;-65
2022/01/07 03:18:10;;;;;;;16.70;13.43;;;-1.80;99.90;;;-1.17;100.00;98167.84;5205215;28;20615;-65
2022/01/07 03:20:44;;;;;;;17.43;13.10;;;-1.80;99.90;;;-1.20;100.00;98161.63;5206257;28;20206;-65
2022/01/07 03:23:18;;;;;;;14.93;13.30;;;-1.90;99.90;;;-1.25;100.00;98158.59;5205620;28;20604;-65
2022/01/07 03:25:51;;;;;;;17.43;13.30;;;-2.00;99.90;;;-1.29;99.91;98164.00;5206454;28;20197;-65
2022/01/07 03:28:25;;;;;;;15.23;13.37;;;-1.90;99.90;;;-1.26;100.00;98153.41;5204052;28;20193;-64
2022/01/07 03:30:58;;;;;;;16.37;12.87;;;-1.90;99.90;;;-1.25;99.93;98162.72;5206312;28;20204;-64
2022/01/07 03:33:31;;;;;;;16.07;13.27;;;-1.90;99.90;;;-1.18;99.92;98157.63;5203999;28;20324;-65
2022/01/07 03:36:05;;;;;;;15.03;13.43;;;-1.80;99.90;;;-1.19;100.00;98151.72;5204979;28;20701;-65
2022/01/07 03:38:40;;;;;;;15.83;14.33;;;-1.80;99.90;;;-1.25;100.00;98146.06;5206096;28;20246;-65
2022/01/07 03:41:13;;;;;;;16.60;14.33;;;-2.00;99.90;;;-1.26;99.93;98153.41;5200767;28;20207;-65
2022/01/07 03:43:46;;;;;;;14.23;12.83;;;-2.00;99.90;;;-1.20;100.00;98151.59;5204259;28;20206;-65
2022/01/07 03:46:19;;;;;;;16.53;14.33;;;-1.90;99.90;;;-1.13;99.79;98154.00;5205586;28;20198;-65
2022/01/07 03:48:52;;;;;;;16.27;14.57;;;-1.80;99.90;;;-1.11;99.60;98156.69;5202777;28;20713;-65
2022/01/07 03:51:25;;;;;;;15.60;14.10;;;-1.80;99.90;;;-1.07;100.00;98163.78;5206604;28;20606;-65
2022/01/07 03:54:00;;;;;;;17.30;15.37;;;-1.80;99.90;;;-1.08;100.00;98167.03;5202506;28;20205;-65
2022/01/07 03:56:34;;;;;;;17.00;15.23;;;-1.80;99.90;;;-1.06;100.00;98168.97;5202489;28;20693;-65
2022/01/07 03:59:07;;;;;;;17.27;15.43;;;-1.70;99.90;;;-1.09;100.00;98167.75;5203719;28;20285;-65
2022/01/07 04:01:40;;;;;;;18.43;15.30;;;-1.80;99.90;;;-0.99;100.00;98166.38;5199951;28;20234;-64
2022/01/07 04:04:13;;;;;;;20.63;16.20;;;-1.80;99.90;;;-0.93;99.21;98169.53;5199445;28;20209;-65
2022/01/07 04:06:46;;;;;;;18.70;16.67;;;-1.70;99.90;;;-0.98;99.45;98170.66;5203517;28;20233;-65
2022/01/07 04:09:21;;;;;;;19.20;17.20;;;-1.70;99.90;;;-1.01;99.79;98170.34;5204259;28;20640;-65
2022/01/07 04:11:54;;;;;;;19.50;15.53;;;-1.70;99.90;;;-0.99;100.00;98166.38;5200298;28;20251;-64
2022/01/07 04:14:27;;;;;;;20.37;17.03;;;-1.80;99.90;;;-0.86;100.00;98175.19;5204530;28;20200;-65
2022/01/07 04:17:00;;;;;;;21.53;16.70;;;-1.70;99.90;;;-0.83;99.46;98170.50;5203639;28;20221;-65
2022/01/07 04:19:33;;;;;;;17.10;15.30;;;-1.70;99.90;;;-0.92;99.28;98161.31;5204292;28;20200;-65
2022/01/07 04:22:07;;;;;;;26.73;16.30;;;-1.70;99.90;;;-1.01;100.00;98169.44;5204238;28;20231;-65
2022/01/07 04:24:41;;;;;;;22.10;15.73;;;-1.70;99.90;;;-1.04;99.55;98182.56;5203031;28;20202;-65
2022/01/07 04:27:14;;;;;;;21.73;17.07;;;-1.80;99.90;;;-1.02;100.00;98173.59;5204614;28;20202;-65
2022/01/07 04:29:47;;;;;;;29.60;15.37;;;-1.80;99.90;;;-1.04;99.88;98185.06;5202657;28;20202;-65
2022/01/07 04:32:20;;;;;;;30.93;16.63;;;-1.80;99.90;;;-1.13;99.11;98189.09;5204444;28;20222;-65
2022/01/07 04:34:53;;;;;;;20.17;16.10;;;-1.90;99.90;;;-1.13;100.00;98184.09;5203927;28;20203;-65
2022/01/07 04:37:26;;;;;;;18.80;15.47;;;-1.90;99.90;;;-1.14;99.50;98183.22;5202897;28;20317;-65
2022/01/07 04:40:01;;;;;;;17.10;14.67;;;-1.90;99.90;;;-1.13;99.89;98186.59;5203927;28;20208;-64
2022/01/07 04:42:34;;;;;;;15.93;13.87;;;-1.90;99.90;;;-1.20;100.00;98177.53;5203426;28;20225;-64
2022/01/07 04:45:09;;;;;;;15.33;12.63;;;-2.00;99.90;;;-1.23;100.00;98173.78;5203573;28;20208;-65
2022/01/07 04:47:43;;;;;;;15.63;13.00;;;-2.00;99.90;;;-1.28;100.00;98179.97;5202419;28;20282;-65
2022/01/07 04:50:19;;;;;;;14.53;13.03;;;-2.00;99.90;;;-1.27;99.44;98179.22;5204432;28;20203;-65
2022/01/07 04:52:53;;;;;;;14.03;12.53;;;-2.10;99.90;;;-1.37;98.34;98184.88;5197296;28;20227;-65
2022/01/07 04:55:37;;;;;;;14.73;13.27;;;-2.10;99.90;;;-1.55;97.94;98180.38;5203687;28;20214;-65
2022/01/07 04:58:12;;;;;;;13.83;12.53;;;-2.20;99.90;;;-1.54;98.16;98177.16;5203759;28;20222;-65
2022/01/07 05:00:46;;;;;;;14.63;12.30;;;-2.20;99.90;;;-1.46;99.14;98182.28;5202308;28;20197;-65
2022/01/07 05:03:19;;;;;;;13.47;12.07;;;-2.10;99.90;;;-1.45;98.26;98179.03;5202253;28;20768;-64
2022/01/07 05:06:02;;;;;;;12.60;11.03;;;-2.20;99.90;;;-1.57;96.62;98177.72;5202549;28;20570;-65
2022/01/07 05:08:36;;;;;;;12.20;10.80;;;-2.20;99.90;;;-1.65;96.97;98188.50;5203047;28;20194;-65
2022/01/07 05:11:10;;;;;;;12.17;10.87;;;-2.30;99.90;;;-1.57;98.52;98182.72;5203430;28;20200;-65
2022/01/07 05:13:43;;;;;;;12.40;11.20;;;-2.30;99.90;;;-1.55;98.00;98188.78;5202860;28;20205;-65
2022/01/07 05:16:16;;;;;;;16.50;12.03;;;-2.20;99.90;;;-1.66;96.88;98187.63;5201896;28;20226;-64
2022/01/07 05:18:49;;;;;;;13.27;11.93;;;-2.30;99.90;;;-1.67;98.60;98189.97;5202452;28;20198;-65
2022/01/07 05:21:22;;;;;;;13.67;12.23;;;-2.40;99.90;;;-1.65;97.14;98193.53;5201913;28;20200;-64
2022/01/07 05:23:55;;;;;;;12.60;11.30;;;-2.30;99.90;;;-1.62;98.71;98196.38;5196220;28;20210;-65
2022/01/07 05:26:30;;;;;;;12.77;11.47;;;-2.30;99.90;;;-1.63;98.11;98194.56;5202273;28;20662;-65
2022/01/07 05:29:03;;;;;;;16.93;14.17;;;-2.30;99.90;;;-1.59;97.92;98195.06;5202637;28;20211;-64
2022/01/07 05:31:36;;;;;;;14.00;12.60;;;-2.20;99.90;;;-1.54;99.01;98190.56;5200791;28;20230;-64
2022/01/07 05:34:09;;;;;;;13.77;12.20;;;-2.20;99.90;;;-1.57;97.65;98187.75;5202555;28;20208;-64
2022/01/07 05:36:42;;;;;;;12.90;11.53;;;-2.20;99.90;;;-1.60;98.03;98188.28;5201779;28;20225;-64
2022/01/07 05:39:15;;;;;;;12.00;10.73;;;-2.30;99.90;;;-1.62;98.77;98191.34;5201786;28;20205;-64
2022/01/07 05:41:50;;;;;;;11.77;10.57;;;-2.30;99.90;;;-1.51;98.16;98190.00;5202510;28;20228;-64
2022/01/07 05:44:23;;;;;;;12.27;10.77;;;-2.20;99.90;;;-1.50;97.56;98187.66;5202756;28;20205;-64
2022/01/07 05:46:56;;;;;;;12.43;10.83;;;-2.20;99.90;;;-1.49;97.84;98194.44;5198200;28;20582;-64
2022/01/07 05:49:29;;;;;;;11.00;9.90;;;-2.20;99.90;;;-1.64;95.61;98185.28;5203279;28;20210;-64
2022/01/07 05:52:02;;;;;;;11.00;9.53;;;-2.30;99.90;;;-1.64;97.73;98185.28;5204713;28;20222;-64
2022/01/07 05:54:35;;;;;;;11.13;10.03;;;-2.30;99.90;;;-1.56;96.55;98183.59;5199494;28;20305;-64
2022/01/07 05:57:09;;;;;;;10.93;9.67;;;-2.30;99.90;;;-1.59;97.31;98180.03;5204213;28;20692;-64
2022/01/07 05:59:42;;;;;;;11.33;10.30;;;-2.20;99.90;;;-1.53;96.61;98183.94;5200177;28;20199;-65
2022/01/07 06:02:15;;;;;;;12.27;10.50;;;-2.20;99.90;;;-1.55;96.58;98186.25;5197599;28;20229;-64
2022/01/07 06:04:53;;;;;;;13.47;10.93;;;-2.20;99.90;;;-1.51;98.00;98183.38;5196942;28;20696;-64
2022/01/07 06:07:26;;;;;;;14.20;12.77;;;-2.10;99.90;;;-1.55;98.47;98183.75;5197518;28;20210;-64
2022/01/07 06:09:59;;;;;;;13.90;12.20;;;-2.10;99.90;;;-1.51;97.65;98175.88;5201663;28;20285;-64
2022/01/07 06:12:34;;;;;;;16.03;12.73;;;-2.10;99.90;;;-1.52;98.45;98171.56;5199835;28;20222;-64
2022/01/07 06:15:09;;;;;;;14.17;12.57;;;-2.20;99.90;;;-1.51;98.24;98173.34;5199984;28;20563;-64
2022/01/07 06:17:42;;;;;;;14.50;12.40;;;-2.20;99.90;;;-1.58;96.32;98175.91;5196728;28;20228;-64
2022/01/07 06:20:15;;;;;;;12.50;11.30;;;-2.30;99.90;;;-1.61;97.40;98185.59;5205052;28;20210;-64
2022/01/07 06:22:48;;;;;;;13.30;10.90;;;-2.30;99.90;;;-1.60;96.93;98177.38;5204156;28;20303;-64
2022/01/07 06:25:21;;;;;;;12.33;11.00;;;-2.30;99.90;;;-1.56;97.05;98179.47;5198860;28;20201;-64
2022/01/07 06:27:56;;;;;;;12.40;11.10;;;-2.30;99.90;;;-1.58;95.95;98175.91;5202178;28;20202;-64
2022/01/07 06:30:29;;;;;;;14.00;12.57;;;-2.20;99.90;;;-1.54;96.45;98183.06;5196152;28;20223;-64
2022/01/07 06:33:02;;;;;;;14.83;12.80;;;-2.20;99.90;;;-1.53;96.08;98182.31;5202969;28;20214;-64
2022/01/07 06:35:35;;;;;;;14.80;13.20;;;-2.20;99.90;;;-1.51;96.70;98177.50;5205290;28;20577;-64
2022/01/07 06:38:08;;;;;;;16.33;12.67;;;-2.10;99.90;;;-1.45;96.58;98174.00;5204012;28;20225;-64
2022/01/07 06:40:41;;;;;;;20.93;16.10;;;-2.00;99.90;;;-1.41;98.18;98166.09;5205118;28;20201;-64
2022/01/07 06:43:15;;;;;;;15.97;14.30;;;-2.00;99.90;;;-1.34;96.97;98166.75;5202461;28;20562;-64
2022/01/07 06:45:48;;;;;;;17.10;14.30;;;-1.90;99.90;;;-1.31;97.78;98167.09;5201758;28;20205;-64
2022/01/07 06:48:22;;;;;;;16.60;14.17;;;-1.90;99.90;;;-1.30;97.95;98163.84;5204474;28;20570;-64
2022/01/07 06:50:55;;;;;;;14.30;12.80;;;-1.90;99.90;;;-1.28;96.89;98160.78;5198926;28;20198;-64
2022/01/07 06:53:29;;;;;;;14.47;12.53;;;-1.90;99.90;;;-1.30;96.23;98164.72;5204292;28;20214;-64
2022/01/07 06:56:03;;;;;;;15.43;13.60;;;-1.90;99.90;;;-1.27;97.91;98159.16;5202196;28;20227;-64
2022/01/07 06:58:37;;;;;;;13.80;11.50;;;-1.90;99.90;;;-1.30;95.89;98158.84;5203265;28;20753;-64
2022/01/07 07:01:10;;;;;;;12.67;11.37;;;-1.90;99.90;;;-1.29;97.40;98158.97;5202609;28;20206;-65
2022/01/07 07:03:44;;;;;;;14.03;11.23;;;-1.90;99.90;;;-1.25;96.42;98147.69;5203019;28;20198;-64
2022/01/07 07:06:17;;;;;;;13.83;12.03;;;-1.90;99.90;;;-1.17;97.29;98161.94;5203293;28;20201;-64
2022/01/07 07:08:50;;;;;;;14.97;12.80;;;-1.80;99.90;;;-1.15;97.77;98157.94;5202507;28;20203;-66
2022/01/07 07:11:23;;;;;;;17.30;13.23;;;-1.80;99.90;;;-1.09;96.52;98153.56;5203639;28;20199;-63
2022/01/07 07:13:58;;;;;;;48.47;26.37;;;-1.80;99.90;;;-1.01;96.92;98155.28;5203775;28;20642;-64
2022/01/07 07:16:31;;;;;;;31.43;21.17;;;-1.70;99.90;;;-0.92;95.23;98146.25;5204546;28;20208;-64
2022/01/07 07:19:04;;;;;;;17.13;12.93;;;-1.80;99.90;;;-1.02;95.77;98153.53;5198143;28;20244;-64
2022/01/07 07:21:38;;;;;;;13.57;10.63;;;-1.80;99.90;;;-1.09;95.96;98145.16;5204075;28;20307;-63
2022/01/07 07:24:11;;;;;;;11.13;9.83;;;-1.80;99.90;;;-1.24;95.72;98146.94;5202170;28;20234;-64
2022/01/07 07:26:44;;;;;;;11.17;10.07;;;-1.90;99.90;;;-1.23;94.96;98143.69;5201277;28;20226;-64
2022/01/07 07:29:18;;;;;;;13.70;10.47;;;-1.90;99.90;;;-1.21;96.29;98140.63;5202371;28;20200;-63
2022/01/07 07:31:55;;;;;;;14.33;10.60;;;-1.90;99.90;;;-1.24;96.55;98137.81;5198959;28;20221;-64
2022/01/07 07:34:57;;;;;;;13.17;10.63;;;-1.90;99.90;;;-1.27;96.43;98129.97;5203569;28;20201;-63
2022/01/07 07:37:30;;;;;;;16.10;14.17;;;-1.90;99.90;;;-1.28;96.66;98133.22;5202342;28;20213;-64
2022/01/07 07:40:05;;;;;;;15.97;13.90;;;-1.90;99.90;;;-1.34;96.25;98131.63;5200776;28;20585;-64
2022/01/07 07:42:38;;;;;;;12.60;11.30;;;-1.90;99.90;;;-1.30;95.75;98131.25;5202195;28;20226;-64
2022/01/07 07:45:13;;;;;;;12.87;11.57;;;-1.90;99.90;;;-1.29;96.65;98125.50;5201978;28;20207;-64
2022/01/07 07:47:46;;;;;;;11.93;10.73;;;-2.00;99.90;;;-1.37;95.87;98122.22;5201142;28;20285;-64
2022/01/07 07:50:20;;;;;;;12.00;10.80;;;-2.00;99.90;;;-1.33;96.45;98125.91;5202443;28;20286;-64
2022/01/07 07:52:53;;;;;;;12.27;9.97;;;-2.00;99.90;;;-1.40;95.69;98121.88;5199453;28;20718;-64
2022/01/07 07:55:26;;;;;;;11.17;10.03;;;-2.10;99.90;;;-1.46;94.46;98117.09;5199273;28;20198;-64
2022/01/07 07:57:59;;;;;;;11.00;9.80;;;-2.10;99.90;;;-1.44;94.75;98113.13;5200653;28;20234;-64
2022/01/07 08:00:33;;;;;;;12.90;10.93;;;-2.00;99.90;;;-1.31;96.96;98106.94;5203211;28;20213;-64
2022/01/07 08:03:06;;;;;;;12.90;11.60;;;-1.90;99.90;;;-1.21;95.50;98098.00;5200511;28;20284;-64
2022/01/07 08:05:39;;;;;;;14.37;11.23;;;-1.90;99.90;;;-1.13;96.31;98097.19;5196250;28;20289;-64
2022/01/07 08:08:13;;;;;;;13.27;11.33;;;-1.80;99.90;;;-0.99;95.78;98093.63;5201978;28;20203;-64
2022/01/07 08:10:48;;;;;;;14.27;11.73;;;-1.70;99.90;;;-0.89;95.65;98090.47;5199269;28;20202;-64
2022/01/07 08:13:30;;;;;;;14.70;11.70;;;-1.50;99.90;;;-0.78;96.15;98094.09;5199227;28;20232;-64
2022/01/07 08:16:06;;;;;;;14.20;11.83;;;-1.40;99.90;;;-0.61;96.09;98094.22;5199357;28;20201;-64
2022/01/07 08:18:40;;;;;;;13.20;11.17;;;-1.10;99.90;;;-0.24;95.33;98082.94;5198102;28;20298;-65
2022/01/07 08:21:13;;;;;;;12.30;11.00;;;-0.80;99.90;;;-0.09;94.42;98084.47;5200461;28;20575;-65
2022/01/07 08:23:47;;;;;;;11.10;10.10;;;-0.60;99.90;;;-0.01;93.38;98082.75;5197545;28;20203;-65
2022/01/07 08:26:21;;;;;;;11.67;10.47;;;-0.60;99.90;;;0.02;93.06;98065.47;5198072;28;20297;-65
2022/01/07 08:28:57;;;;;;;11.87;10.67;;;-0.60;99.90;;;0.13;94.00;98069.94;5198437;28;20196;-65
2022/01/07 08:37:13;;;;;;;11.30;10.10;;;-0.20;99.90;;;0.29;90.56;98066.47;5200203;28;20203;-65
2022/01/07 08:39:46;;;;;;;12.03;10.83;;;0.00;99.90;;;0.40;90.10;98058.31;5201394;28;20229;-65
2022/01/07 08:42:19;;;;;;;11.20;9.50;;;-0.10;99.90;;;0.41;89.90;98053.47;5197551;28;20228;-65
2022/01/07 08:44:54;;;;;;;12.90;10.43;;;-0.20;99.90;;;0.48;91.90;98051.56;5199463;28;20206;-65
2022/01/07 08:47:29;;;;;;;11.87;10.57;;;0.00;99.90;;;0.59;92.50;98045.94;5198811;28;20199;-63
2022/01/07 08:50:02;;;;;;;12.23;10.43;;;0.10;99.90;;;0.69;92.71;98053.66;5201175;28;20539;-63
2022/01/07 08:52:35;;;;;;;12.80;11.47;;;0.20;99.90;;;0.75;92.69;98056.78;5201066;28;20235;-63
2022/01/07 08:55:09;;;;;;;13.20;11.80;;;0.10;99.90;;;0.83;92.63;98049.94;5198229;28;20206;-63
2022/01/07 08:57:42;;;;;;;17.90;13.47;;;0.10;99.90;;;0.85;92.41;98051.88;5202245;28;20625;-64
2022/01/07 09:00:16;;;;;;;17.73;14.10;;;0.10;99.90;;;0.95;92.43;98048.66;5200772;28;20194;-65
2022/01/07 09:02:51;;;;;;;15.10;13.53;;;0.10;99.90;;;0.88;92.00;98057.22;5205662;28;20254;-63
2022/01/07 09:05:24;;;;;;;13.90;12.60;;;0.10;99.90;;;0.92;91.23;98052.47;5200326;28;20236;-63
2022/01/07 09:07:58;;;;;;;13.00;11.67;;;0.00;99.90;;;0.79;91.73;98048.78;5201428;28;20203;-63
2022/01/07 09:10:31;;;;;;;13.50;12.13;;;0.00;99.90;;;0.71;92.28;98052.16;5201516;28;20198;-64
2022/01/07 09:13:04;;;;;;;13.93;12.43;;;0.10;99.90;;;0.83;93.42;98043.31;5195984;28;20251;-65
2022/01/07 09:15:38;;;;;;;13.87;12.37;;;0.10;99.90;;;0.86;93.80;98048.66;5197441;28;20200;-66
2022/01/07 09:18:14;;;;;;;16.43;13.53;;;0.10;99.90;;;0.85;94.25;98051.00;5198246;28;20217;-64
2022/01/07 09:20:48;;;;;;;15.63;13.97;;;0.20;99.90;;;0.84;94.16;98050.13;5200721;28;20209;-65
2022/01/07 09:23:21;;;;;;;17.23;14.37;;;0.30;99.90;;;0.93;94.83;98049.25;5198241;28;20217;-63
2022/01/07 09:25:55;;;;;;;16.90;13.80;;;0.20;99.90;;;0.82;92.82;98050.72;5201461;28;20213;-63
2022/01/07 09:28:28;;;;;;;15.27;13.67;;;0.10;99.90;;;0.93;94.30;98056.78;5202122;28;20203;-62
2022/01/07 09:31:01;;;;;;;26.47;20.77;;;0.20;99.90;;;0.97;94.29;98056.31;5201000;28;20199;-63
2022/01/07 09:33:35;;;;;;;23.73;18.77;;;0.20;99.90;;;0.97;94.99;98056.31;5203534;28;20223;-63
2022/01/07 09:36:28;;;;;;;20.03;16.17;;;0.20;99.90;;;0.99;94.84;98054.84;5199446;28;20204;-63
2022/01/07 09:39:01;;;;;;;15.63;14.03;;;0.30;99.90;;;1.05;95.73;98053.81;5202077;28;20681;-63
2022/01/07 09:41:34;;;;;;;15.20;13.60;;;0.30;99.90;;;1.02;95.16;98050.13;5200883;28;20222;-60
2022/01/07 09:44:10;;;;;;;15.87;13.83;;;0.30;99.90;;;1.09;95.90;98053.38;5201616;28;20556;-62
2022/01/07 09:46:44;;;;;;;15.97;13.57;;;0.40;99.90;;;1.18;96.50;98049.97;5201134;28;20208;-63
2022/01/07 09:49:18;;;;;;;14.30;12.83;;;0.50;99.90;;;1.16;95.60;98038.88;5200367;28;20617;-65
2022/01/07 09:51:51;;;;;;;14.07;12.63;;;0.60;99.90;;;1.10;94.74;98045.09;5203312;28;20212;-65
2022/01/07 09:54:24;;;;;;;16.60;12.33;;;0.40;99.90;;;1.10;94.17;98040.03;5201235;28;20200;-65
2022/01/07 09:56:57;;;;;;;14.20;12.80;;;0.50;99.90;;;1.24;94.95;98032.94;5206296;28;20199;-65
2022/01/07 09:59:31;;;;;;;17.27;14.60;;;0.60;99.90;;;1.49;96.52;98026.97;5205823;28;20225;-66
2022/01/07 10:02:06;;;;;;;36.10;27.27;;;0.70;99.90;;;1.75;95.01;98023.50;5205559;28;20233;-63
2022/01/07 10:04:42;;;;;;;31.07;22.63;;;0.70;99.90;;;1.76;94.58;98017.69;5206705;28;20205;-63
2022/01/07 10:07:17;;;;;;;25.50;19.40;;;0.70;99.90;;;1.73;94.80;98012.38;5207689;28;20205;-63
2022/01/07 10:10:04;;;;;;;23.70;19.67;;;0.80;99.90;;;1.65;95.00;98010.75;5204345;28;20300;-63
2022/01/07 10:12:59;;;;;;;16.90;13.90;;;0.80;99.90;;;1.71;96.16;98007.19;5207205;28;20222;-63
2022/01/07 10:15:34;;;;;;;13.27;11.97;;;0.90;99.90;;;1.72;96.97;98003.94;5203635;28;20197;-63
2022/01/07 10:18:10;;;;;;;14.00;12.60;;;1.00;99.90;;;1.78;96.20;98001.97;5205233;28;20212;-63
2022/01/07 10:20:47;;;;;;;13.27;11.77;;;1.00;99.90;;;1.70;95.60;98007.94;5205215;28;20277;-63
2022/01/07 10:23:24;;;;;;;13.37;12.00;;;1.00;99.90;;;1.80;97.21;97997.97;5206208;28;20223;-63
2022/01/07 10:25:58;;;;;;;17.17;15.20;;;1.00;99.90;;;1.71;95.45;97999.63;5201238;28;20204;-62
2022/01/07 10:28:35;;;;;;;15.53;13.93;;;1.00;99.90;;;1.81;97.47;97991.28;5205573;28;20522;-63
2022/01/07 10:31:09;;;;;;;15.00;13.50;;;1.00;99.90;;;1.92;97.49;97982.22;5204687;28;20194;-62
2022/01/07 10:33:44;;;;;;;16.93;14.30;;;1.10;99.90;;;2.05;97.88;97981.69;5203384;28;20213;-62
2022/01/07 10:36:21;;;;;;;17.07;14.37;;;1.10;99.90;;;2.11;96.76;97983.13;5206452;28;20650;-63
2022/01/07 10:38:57;;;;;;;16.20;13.77;;;1.10;99.90;;;2.09;96.76;97969.53;5205177;28;20600;-62